Sunday, November 19, 2017, 8:52 PM EST
Back to Local

KDAW, Skyhaven Airport

Location: Rochester, NH, United States Lat: 43.283
Local Time: 8:52 PM EST ( 1:52 GMT) Lon: -70.917
Time Zone: US/Eastern Elev: 321 ft

Show me the last for .
Show Decoded

2017-11-19 19:51 METAR KDAW 200051Z AUTO 28008G21KT 10SM OVC033 02/M04 A2949 RMK AO2 PK WND
                 30026/2355 SLP985 T00221039 =
2017-11-19 18:51 METAR KDAW 192351Z AUTO 28007G19KT 210V320 10SM OVC036 03/M04 A2946 RMK AO2
                 SLP973 T00281039 10100 20028 51052 =
2017-11-19 17:51 METAR KDAW 192251Z AUTO 29010G22KT 10SM OVC037 03/M04 A2942 RMK AO2 SLP959
                 T00281039 =
2017-11-19 16:51 METAR KDAW 192151Z AUTO 28010G20KT 230V310 10SM BKN038 03/M03 A2937 RMK AO2 PK
                 WND 31026/2117 PRESRR SLP943 T00331028 =
2017-11-19 15:51 METAR KDAW 192051Z AUTO 28016G34KT 250V310 10SM BKN039 05/M02 A2930 RMK AO2 PK
                 WND 32034/2046 SLP921 T00501022 53062 =
2017-11-19 14:51 METAR KDAW 191951Z AUTO 28013G32KT 230V310 10SM SCT035 06/00 A2922 RMK AO2 PK
                 WND 29032/1948 SLP892 T00610000 =
2017-11-19 13:51 METAR KDAW 191851Z AUTO 29013G29KT 250V310 10SM OVC032 08/02 A2918 RMK AO2 PK
                 WND 31029/1844 SLP880 T00830022 =
2017-11-19 13:41 METAR KDAW 191841Z AUTO 29017G26KT 10SM OVC030 08/03 A2918 RMK AO2 PK WND
                 30026/1840 PRESRR T00830033 =
2017-11-19 12:51 METAR KDAW 191751Z AUTO 28009G24KT 160V020 10SM BKN023 OVC033 10/06 A2912 RMK
                 AO2 RAB01E11 SLP857 P0000 60018 T01000056 10139 20094 53011 =
2017-11-19 12:15 METAR KDAW 191715Z AUTO 26009G24KT 200V290 10SM BKN023 BKN065 OVC085 11/08 A2909
                 RMK AO2 RAB01E11 P0000 T01060083 =
2017-11-19 11:51 METAR KDAW 191651Z AUTO 26008G19KT 180V310 10SM FEW014 SCT022 BKN065 13/11 A2907
                 RMK AO2 RAE07B25E46 SLP842 P0005 T01280106 =
2017-11-19 11:41 METAR KDAW 191641Z AUTO VRB05KT 4SM -RA BR SCT014 BKN022 OVC090 14/13 A2906 RMK
                 AO2 RAE07B25 P0005 T01390133 =
2017-11-19 11:37 METAR KDAW 191637Z AUTO 25008KT 1 3/4SM -RA BR SCT010 BKN016 OVC022 14/13 A2906
                 RMK AO2 RAE07B25 P0005 T01390133 =
2017-11-19 11:30 METAR KDAW 191630Z AUTO VRB04KT 2 1/2SM RA BR SCT010 BKN018 OVC033 14/13 A2905
                 RMK AO2 RAE07B25 P0003 T01390133 =
2017-11-19 10:51 METAR KDAW 191551Z AUTO 18006KT 8SM -RA SCT007 BKN011 OVC020 14/14 A2906 RMK AO2
                 RAB13 SLP838 P0006 T01390139 =
2017-11-19 10:43 METAR KDAW 191543Z AUTO VRB06KT 2SM -RA BR BKN007 BKN014 OVC022 14/14 A2907 RMK
                 AO2 RAB13 P0006 T01390139 =
2017-11-19 10:35 METAR KDAW 191535Z AUTO 18007G16KT 130V210 1 3/4SM +RA BR BKN009 OVC014 14/14
                 A2907 RMK AO2 VIS 3/4V5 RAB13 CIG 007V011 P0005 T01390139 =
2017-11-19 09:51 METAR KDAW 191451Z AUTO 18007KT 10SM BKN006 OVC015 13/13 A2908 RMK AO2 RAE14 CIG
                 004V011 SLP846 P0001 60007 T01330133 58026 =
2017-11-19 09:09 METAR KDAW 191409Z AUTO 18006KT 9SM -RA BKN006 OVC012 13/13 A2911 RMK AO2 CIG
                 004V010 P0001 T01280128 =
2017-11-19 08:51 METAR KDAW 191351Z AUTO 17006KT 7SM -RA FEW004 OVC010 13/13 A2912 RMK AO2 CIG
                 007V012 SLP859 P0001 T01280128 =
2017-11-19 08:40 METAR KDAW 191340Z AUTO 18005KT 6SM -RA BR SCT003 BKN010 OVC014 12/12 A2912 RMK
                 AO2 CIG 008V012 P0001 T01220122 =
2017-11-19 07:51 METAR KDAW 191251Z AUTO 18005KT 4SM -RA BR OVC003 12/12 A2915 RMK AO2 SLP869
                 P0005 T01170117 =
2017-11-19 06:51 METAR KDAW 191151Z AUTO 16007KT 5SM -RA BR OVC002 12/12 A2916 RMK AO2 SLP872
                 P0001 60012 70031 T01170117 10117 20033 56039 =
2017-11-19 05:51 METAR KDAW 191051Z AUTO 16006KT 4SM -RA BR OVC002 11/11 A2919 RMK AO2 RAE05B32
                 SLP882 P0001 T01110111 =
2017-11-19 05:06 METAR KDAW 191006Z AUTO 15008KT 4SM BR OVC002 10/10 A2923 RMK AO2 RAE05 P0001
                 T01000100 =
2017-11-19 04:51 METAR KDAW 190951Z AUTO 17006KT 2SM -RA BR OVC002 10/10 A2924 RMK AO2 RAB0858
                 SLP898 P0003 T01000100 =
2017-11-19 04:31 METAR KDAW 190931Z AUTO 17005KT 1 1/4SM -RA BR OVC002 09/09 A2926 RMK AO2
                 RAB0858 P0001 T00940094 =
2017-11-19 03:51 METAR KDAW 190851Z AUTO 16004KT 1/2SM FG VV002 08/08 A2928 RMK AO2 RAE11 SLP913
                 P0000 60007 T00830083 56037 =
2017-11-19 02:51 METAR KDAW 190751Z AUTO 00000KT 3/4SM -RA BR VV003 07/07 A2933 RMK AO2 SLP931
                 P0003 T00720072 =
2017-11-19 02:49 METAR KDAW 190749Z AUTO 00000KT 3/4SM -RA BR VV003 07/07 A2933 RMK AO2 P0003 =
2017-11-19 02:40 METAR KDAW 190740Z AUTO 00000KT 1SM -RA BR VV003 07/07 A2934 RMK AO2 P0002
                 T00720072 =
2017-11-19 02:11 METAR KDAW 190711Z AUTO 16003KT 3/4SM -RA BR BKN003 OVC014 07/07 A2937 RMK AO2
                 P0001 T00670067 =
2017-11-19 01:57 METAR KDAW 190657Z AUTO 16003KT 1 3/4SM -RA BR BKN003 BKN014 OVC019 07/07 A2938
                 RMK AO2 P0001 T00670067 =
2017-11-19 01:51 METAR KDAW 190651Z AUTO 17004KT 3SM -RA BR BKN003 OVC019 07/07 A2939 RMK AO2
                 SLP950 P0004 T00720072 =
2017-11-19 01:44 METAR KDAW 190644Z AUTO VRB03KT 3SM -RA BR BKN003 OVC019 07/07 A2939 RMK AO2
                 P0004 T00670067 =
2017-11-19 01:39 METAR KDAW 190639Z AUTO 18003KT 1 3/4SM -RA BR BKN003 OVC019 07/07 A2940 RMK AO2
                 P0004 T00670067 =
2017-11-19 01:04 METAR KDAW 190604Z AUTO VRB03KT 1/2SM RA FG BKN004 OVC050 05/05 A2941 RMK AO2
                 P0002 T00500050 =
2017-11-19 00:51 METAR KDAW 190551Z AUTO 00000KT 1 1/2SM -RA BR OVC003 03/03 A2942 RMK AO2
                 RAE19B41 SLP960 P0000 60019 I6000 T00330033 10039 20011 58045 =
2017-11-19 00:33 METAR KDAW 190533Z AUTO 00000KT 1 1/2SM BR BKN003 OVC009 03/03 A2943 RMK AO2
                 RAE19 P0000 T00330033 =
2017-11-19 00:21 METAR KDAW 190521Z AUTO 31003KT 2 1/2SM BR BKN002 BKN007 OVC011 03/03 A2945 RMK
                 AO2 RAE19 P0000 T00330033 =
2017-11-19 00:02 METAR KDAW 190502Z AUTO 30003KT 3SM -RA BR OVC002 03/03 A2947 RMK AO2 P0000
                 T00330033 =
2017-11-18 23:51 METAR KDAW 190451Z AUTO 33003KT 2 1/2SM -RA BR OVC002 03/03 A2947 RMK AO2
                 RAE0358B39UPB24E28FZRAB0358E24 SLP979 P0003 I1000 T00280028 400441061 =
2017-11-18 23:26 METAR KDAW 190426Z AUTO 31005KT 2SM UP BR OVC003 03/03 A2949 RMK AO2
                 RAE0358UPB24FZRAB0358E24 P0002 I1000 T00280028 =
2017-11-18 23:05 METAR KDAW 190405Z AUTO 32006KT 1 1/2SM -FZRA BR OVC003 02/02 A2949 RMK AO2
                 RAE0358FZRAB0358 P0001 I1000 T00220022 =
2017-11-18 22:58 METAR KDAW 190358Z AUTO 32006KT 2SM -FZRA BR OVC002 02/02 A2950 RMK AO2
                 RAE58FZRAB58 P0001 I1000 T00220022 =
2017-11-18 22:51 METAR KDAW 190351Z AUTO 32004KT 3SM -RA BR OVC002 03/03 A2950 RMK AO2 SLP988
                 P0001 T00280028 =
2017-11-18 21:51 METAR KDAW 190251Z AUTO 31004KT 4SM -RA BR OVC003 02/02 A2955 RMK AO2 SLP007
                 P0007 60015 I1000 I3000 T00220022 58041 =
2017-11-18 21:16 METAR KDAW 190216Z AUTO 32003KT 4SM -RA BR BKN004 BKN008 OVC017 02/02 A2957 RMK
                 AO2 P0004 I1000 T00170017 =
2017-11-18 21:06 METAR KDAW 190206Z AUTO 32004KT 4SM -RA BR SCT004 BKN010 OVC018 02/02 A2958 RMK
                 AO2 CIG 008V011 P0002 T00170017 =

Support USWX by starting your Amazon purchase here.